createdAt,value
2022-11-05T00:00:14.996Z,12.94
2022-11-05T00:03:00.327Z,12.88
2022-11-05T00:05:57.599Z,12.90
2022-11-05T00:08:44.139Z,12.61
2022-11-05T00:11:16.861Z,12.07
2022-11-05T00:14:11.639Z,12.26
2022-11-05T00:16:44.697Z,11.85
2022-11-05T00:19:13.489Z,11.75
2022-11-05T00:21:58.655Z,11.89
2022-11-05T00:24:45.379Z,12.31
2022-11-05T00:27:12.932Z,12.08
2022-11-05T00:29:40.351Z,12.11
2022-11-05T00:32:07.898Z,12.07
2022-11-05T00:34:35.512Z,12.03
2022-11-05T00:37:03.014Z,12.05
2022-11-05T00:39:31.960Z,11.81
2022-11-05T00:42:17.021Z,11.93
2022-11-05T00:45:02.509Z,11.93
2022-11-05T00:47:48.271Z,11.54
2022-11-05T00:50:16.540Z,11.86
2022-11-05T00:52:59.688Z,12.05
2022-11-05T00:55:33.453Z,12.18
2022-11-05T00:58:03.865Z,12.17
2022-11-05T01:00:32.386Z,12.33
2022-11-05T01:03:01.663Z,12.51
2022-11-05T01:05:30.447Z,11.95
2022-11-05T01:07:58.044Z,12.16
2022-11-05T01:10:26.078Z,12.35
2022-11-05T01:12:55.223Z,12.53
2022-11-05T01:15:23.167Z,12.60
2022-11-05T01:17:51.581Z,12.41
2022-11-05T01:20:19.414Z,12.74
2022-11-05T01:22:47.116Z,12.86
2022-11-05T01:25:14.614Z,12.42
2022-11-05T01:27:42.134Z,12.50
2022-11-05T01:30:12.724Z,12.21
2022-11-05T01:32:40.307Z,12.12
2022-11-05T01:35:11.146Z,12.28
2022-11-05T01:37:39.733Z,11.81
2022-11-05T01:40:08.993Z,12.24
2022-11-05T01:42:36.615Z,12.29
2022-11-05T01:45:12.858Z,12.11
2022-11-05T01:47:51.989Z,12.08
2022-11-05T01:50:31.878Z,12.14
2022-11-05T01:53:06.389Z,12.10
2022-11-05T01:55:37.724Z,12.38
2022-11-05T01:58:08.537Z,12.42
2022-11-05T02:00:36.722Z,11.96
2022-11-05T02:03:05.784Z,12.18
2022-11-05T02:05:34.741Z,11.89
2022-11-05T02:08:03.253Z,11.79
2022-11-05T02:10:30.913Z,11.75
2022-11-05T02:12:58.359Z,11.69
2022-11-05T02:15:36.368Z,11.57
2022-11-05T02:18:16.026Z,11.46
2022-11-05T02:20:52.355Z,11.40
2022-11-05T02:23:54.521Z,11.78
2022-11-05T02:26:55.590Z,11.84
2022-11-05T02:30:03.446Z,12.26
2022-11-05T02:32:45.803Z,12.16
2022-11-05T02:35:23.600Z,12.13
2022-11-05T02:37:54.487Z,12.28
2022-11-05T02:40:28.592Z,11.79
2022-11-05T02:43:02.500Z,11.88
2022-11-05T02:45:43.596Z,11.67
2022-11-05T02:48:22.381Z,11.47
2022-11-05T02:50:56.937Z,11.45
2022-11-05T02:53:31.842Z,11.66
2022-11-05T02:56:04.757Z,11.75
2022-11-05T02:58:35.024Z,11.92
2022-11-05T03:01:06.784Z,11.59
2022-11-05T03:03:38.856Z,11.50
2022-11-05T03:06:24.877Z,11.60
2022-11-05T03:09:18.280Z,11.70
2022-11-05T03:11:59.292Z,11.57
2022-11-05T03:14:38.499Z,11.89
2022-11-05T03:17:19.915Z,11.87
2022-11-05T03:19:54.670Z,11.82
2022-11-05T03:22:27.025Z,11.88
2022-11-05T03:24:58.689Z,11.57
2022-11-05T03:27:31.151Z,11.58
2022-11-05T03:30:02.060Z,11.83
2022-11-05T03:32:34.379Z,11.85
2022-11-05T03:35:07.894Z,12.00
2022-11-05T03:37:40.262Z,11.91
2022-11-05T03:40:11.099Z,11.69
2022-11-05T03:42:41.978Z,11.68
2022-11-05T03:45:15.709Z,11.73
2022-11-05T03:47:45.975Z,11.87
2022-11-05T03:50:21.321Z,11.75
2022-11-05T03:52:53.559Z,11.85
2022-11-05T03:55:25.608Z,11.52
2022-11-05T03:57:56.807Z,12.00
2022-11-05T04:00:24.670Z,11.83
2022-11-05T04:02:52.538Z,11.72
2022-11-05T04:05:21.427Z,11.78
2022-11-05T04:08:20.675Z,11.35
2022-11-05T04:11:05.482Z,11.71
2022-11-05T04:13:34.131Z,11.78
2022-11-05T04:16:19.382Z,11.83
2022-11-05T04:18:46.876Z,11.99
2022-11-05T04:21:33.157Z,12.18
2022-11-05T04:24:09.293Z,11.96
2022-11-05T04:26:37.706Z,11.46
2022-11-05T04:29:23.361Z,11.46
2022-11-05T04:31:50.826Z,11.77
2022-11-05T04:34:18.877Z,11.68
2022-11-05T04:36:49.708Z,11.76
2022-11-05T04:39:21.415Z,11.80
2022-11-05T04:41:49.370Z,12.04
2022-11-05T04:44:19.376Z,12.07
2022-11-05T04:46:46.889Z,11.91
2022-11-05T04:49:14.303Z,11.88
2022-11-05T04:51:41.795Z,11.62
2022-11-05T04:54:10.565Z,11.87
2022-11-05T04:56:38.098Z,11.95
2022-11-05T04:59:05.533Z,11.65
2022-11-05T05:01:33.138Z,11.66
2022-11-05T05:04:00.651Z,11.68
2022-11-05T05:06:28.196Z,11.94
2022-11-05T05:08:55.607Z,12.02
2022-11-05T05:11:35.269Z,11.38
2022-11-05T05:14:02.754Z,11.76
2022-11-05T05:16:30.190Z,11.64
2022-11-05T05:18:57.741Z,11.70
2022-11-05T05:21:39.427Z,11.50
2022-11-05T05:24:09.098Z,11.31
2022-11-05T05:26:38.533Z,10.78
2022-11-05T05:29:06.806Z,10.97
2022-11-05T05:31:35.056Z,10.70
2022-11-05T05:34:02.562Z,10.69
2022-11-05T05:36:30.004Z,11.06
2022-11-05T05:38:57.648Z,11.14
2022-11-05T05:41:25.705Z,11.07
2022-11-05T05:43:54.458Z,11.16
2022-11-05T05:46:21.935Z,11.39
2022-11-05T05:48:50.869Z,11.56
2022-11-05T05:51:19.476Z,11.29
2022-11-05T05:53:47.273Z,11.55
2022-11-05T05:56:19.138Z,11.56
2022-11-05T05:58:46.559Z,11.50
2022-11-05T06:01:19.369Z,11.57
2022-11-05T06:03:48.184Z,11.56
2022-11-05T06:06:19.638Z,11.37
2022-11-05T06:08:47.455Z,11.31
2022-11-05T06:11:14.968Z,11.39
2022-11-05T06:13:42.392Z,11.51
2022-11-05T06:16:10.667Z,11.50
2022-11-05T06:18:39.405Z,11.56
2022-11-05T06:21:08.958Z,11.68
2022-11-05T06:23:37.778Z,11.69
2022-11-05T06:26:07.632Z,11.51
2022-11-05T06:28:35.654Z,11.57
2022-11-05T06:31:03.764Z,11.68
2022-11-05T06:33:31.235Z,11.75
2022-11-05T06:36:01.611Z,11.78
2022-11-05T06:38:29.990Z,11.69
2022-11-05T06:40:59.405Z,11.80
2022-11-05T06:43:26.848Z,11.66
2022-11-05T06:45:54.507Z,11.57
2022-11-05T06:48:22.119Z,11.67
2022-11-05T06:50:49.594Z,11.65
2022-11-05T06:53:18.579Z,11.79
2022-11-05T06:55:47.875Z,11.63
2022-11-05T06:58:15.561Z,11.82
2022-11-05T07:00:43.106Z,11.77
2022-11-05T07:03:12.496Z,11.82
2022-11-05T07:05:43.929Z,11.73
2022-11-05T07:08:11.519Z,11.70
2022-11-05T07:10:40.292Z,11.68
2022-11-05T07:13:08.653Z,11.82
2022-11-05T07:15:36.564Z,11.68
2022-11-05T07:18:04.559Z,11.73
2022-11-05T07:20:34.354Z,11.73
2022-11-05T07:23:03.638Z,11.73
2022-11-05T07:25:32.135Z,11.74
2022-11-05T07:28:01.361Z,11.72
2022-11-05T07:30:29.578Z,11.61
2022-11-05T07:32:57.047Z,11.78
2022-11-05T07:35:24.873Z,11.71
2022-11-05T07:37:54.746Z,11.73
2022-11-05T07:40:23.583Z,11.67
2022-11-05T07:42:52.754Z,11.34
2022-11-05T07:45:21.804Z,11.56
2022-11-05T07:47:50.490Z,11.59
2022-11-05T07:50:19.222Z,11.73
2022-11-05T07:52:47.887Z,11.66
2022-11-05T07:55:16.101Z,11.74
2022-11-05T07:57:44.712Z,11.60
2022-11-05T08:00:15.016Z,11.77
2022-11-05T08:02:44.293Z,11.66
2022-11-05T08:05:11.956Z,11.61
2022-11-05T08:07:39.391Z,11.66
2022-11-05T08:10:07.819Z,11.55
2022-11-05T08:12:35.227Z,11.02
2022-11-05T08:15:02.903Z,11.50
2022-11-05T08:17:30.320Z,11.60
2022-11-05T08:19:59.051Z,11.69
2022-11-05T08:22:26.543Z,11.58
2022-11-05T08:24:54.170Z,11.55
2022-11-05T08:27:21.648Z,11.78
2022-11-05T08:29:49.081Z,11.57
2022-11-05T08:32:16.675Z,11.79
2022-11-05T08:34:44.197Z,11.74
2022-11-05T08:37:12.970Z,11.81
2022-11-05T08:39:40.384Z,11.98
2022-11-05T08:42:07.910Z,11.93
2022-11-05T08:44:35.351Z,11.87
2022-11-05T08:47:02.770Z,12.01
2022-11-05T08:49:30.283Z,12.01
2022-11-05T08:51:57.696Z,13.65
2022-11-05T08:54:26.586Z,14.36
2022-11-05T08:56:54.048Z,14.86
2022-11-05T08:59:21.695Z,15.19
2022-11-05T09:01:50.639Z,15.27
2022-11-05T09:04:18.218Z,15.17
2022-11-05T09:06:45.882Z,14.65
2022-11-05T09:09:13.341Z,14.49
2022-11-05T09:12:10.091Z,14.63
2022-11-05T09:14:30.286Z,14.51
2022-11-05T09:16:57.724Z,14.52
2022-11-05T09:19:25.229Z,15.10
2022-11-05T09:21:52.901Z,15.32
2022-11-05T09:24:20.331Z,15.25
2022-11-05T09:26:49.071Z,15.17
2022-11-05T09:29:16.573Z,15.44
2022-11-05T09:31:44.448Z,15.24
2022-11-05T09:34:11.855Z,14.19
2022-11-05T09:36:39.482Z,13.49
2022-11-05T09:39:07.175Z,13.42
2022-11-05T09:41:40.173Z,13.31
2022-11-05T09:44:13.969Z,13.03
2022-11-05T09:46:46.213Z,13.50
2022-11-05T09:49:24.498Z,13.90
2022-11-05T09:51:53.415Z,13.38
2022-11-05T09:54:24.724Z,13.24
2022-11-05T09:56:53.583Z,12.94
2022-11-05T09:59:25.383Z,13.03
2022-11-05T10:01:58.694Z,13.17
2022-11-05T10:04:28.456Z,13.46
2022-11-05T10:06:59.324Z,13.41
2022-11-05T10:09:31.293Z,13.64
2022-11-05T10:12:06.282Z,13.15
2022-11-05T10:14:40.744Z,13.11
2022-11-05T10:17:21.053Z,13.24
2022-11-05T10:19:52.590Z,13.41
2022-11-05T10:22:21.702Z,13.25
2022-11-05T10:24:51.459Z,13.19
2022-11-05T10:27:23.224Z,12.93
2022-11-05T10:29:53.147Z,12.36
2022-11-05T10:32:28.956Z,12.55
2022-11-05T10:34:59.318Z,12.84
2022-11-05T10:37:27.931Z,13.34
2022-11-05T10:39:55.762Z,12.95
2022-11-05T10:42:39.518Z,13.40
2022-11-05T10:45:18.444Z,13.23
2022-11-05T10:47:56.111Z,13.23
2022-11-05T10:50:26.472Z,12.79
2022-11-05T10:52:58.880Z,13.08
2022-11-05T10:55:30.024Z,12.93
2022-11-05T10:58:09.131Z,13.24
2022-11-05T11:00:38.434Z,13.71
2022-11-05T11:03:34.887Z,13.79
2022-11-05T11:06:04.959Z,13.58
2022-11-05T11:08:36.339Z,12.95
2022-11-05T11:11:07.668Z,12.98
2022-11-05T11:13:51.261Z,13.19
2022-11-05T11:16:23.642Z,13.46
2022-11-05T11:18:54.764Z,12.96
2022-11-05T11:21:24.180Z,13.15
2022-11-05T11:23:56.475Z,13.58
2022-11-05T11:26:26.043Z,13.81
2022-11-05T11:29:01.093Z,13.98
2022-11-05T11:31:32.557Z,13.74
2022-11-05T11:34:04.012Z,13.99
2022-11-05T11:36:35.866Z,13.89
2022-11-05T11:39:07.886Z,13.59
2022-11-05T11:41:38.763Z,13.30
2022-11-05T11:44:11.850Z,13.01
2022-11-05T11:46:40.943Z,13.35
2022-11-05T11:49:28.373Z,13.85
2022-11-05T11:52:01.754Z,12.98
2022-11-05T11:54:34.437Z,12.52
2022-11-05T11:57:04.341Z,13.24
2022-11-05T12:00:01.750Z,12.86
2022-11-05T12:02:47.945Z,13.79
2022-11-05T12:05:29.591Z,13.32
2022-11-05T12:08:02.111Z,13.62
2022-11-05T12:10:44.991Z,13.09
2022-11-05T12:13:45.405Z,13.27
2022-11-05T12:16:21.555Z,13.06
2022-11-05T12:18:58.220Z,13.62
2022-11-05T12:21:52.104Z,13.58
2022-11-05T12:24:58.792Z,13.61
2022-11-05T12:27:47.163Z,13.78
2022-11-05T12:30:17.083Z,13.46
2022-11-05T12:33:17.134Z,13.49
2022-11-05T12:36:04.882Z,13.66
2022-11-05T12:38:49.599Z,13.76
2022-11-05T12:41:25.737Z,14.05
2022-11-05T12:44:12.357Z,14.39
2022-11-05T12:46:51.099Z,13.99
2022-11-05T12:49:43.847Z,13.54
2022-11-05T12:52:34.674Z,13.26
2022-11-05T12:55:06.298Z,13.60
2022-11-05T12:57:37.419Z,13.59
2022-11-05T13:00:09.094Z,14.18
2022-11-05T13:02:41.669Z,13.90
2022-11-05T13:05:16.336Z,14.45
2022-11-05T13:07:54.244Z,13.54
2022-11-05T13:10:28.960Z,14.23
2022-11-05T13:13:04.690Z,14.05
2022-11-05T13:15:38.600Z,14.16
2022-11-05T13:18:12.519Z,14.06
2022-11-05T13:20:45.753Z,14.39
2022-11-05T13:23:24.061Z,14.37
2022-11-05T13:25:56.712Z,14.10
2022-11-05T13:28:36.431Z,13.37
2022-11-05T13:31:10.797Z,13.19
2022-11-05T13:33:43.266Z,13.18
2022-11-05T13:36:33.010Z,13.40
2022-11-05T13:39:09.397Z,13.10
2022-11-05T13:41:53.152Z,13.44
2022-11-05T13:44:35.284Z,13.31
2022-11-05T13:47:28.019Z,13.35
2022-11-05T13:50:30.921Z,13.69
2022-11-05T13:53:25.772Z,13.76
2022-11-05T13:56:05.782Z,13.77
2022-11-05T13:58:48.258Z,13.73
2022-11-05T14:01:34.110Z,13.55
2022-11-05T14:04:01.856Z,13.40
2022-11-05T14:06:32.670Z,13.75
2022-11-05T14:09:03.166Z,13.97
2022-11-05T14:11:35.817Z,13.60
2022-11-05T14:14:06.888Z,13.15
2022-11-05T14:16:52.509Z,13.30
2022-11-05T14:19:36.868Z,13.45
2022-11-05T14:22:39.040Z,13.24
2022-11-05T14:25:43.993Z,13.52
2022-11-05T14:28:41.529Z,13.46
2022-11-05T14:31:47.259Z,13.40
2022-11-05T14:34:21.815Z,13.71
2022-11-05T14:37:15.297Z,14.21
2022-11-05T14:39:43.910Z,14.07
2022-11-05T14:42:13.690Z,14.28
2022-11-05T14:47:38.802Z,14.39
2022-11-05T14:50:11.948Z,14.24
2022-11-05T14:52:41.420Z,14.18
2022-11-05T14:55:26.439Z,13.99
2022-11-05T14:58:24.647Z,13.93
2022-11-05T15:00:52.857Z,14.01
2022-11-05T15:03:34.744Z,13.77
2022-11-05T15:06:20.911Z,13.22
2022-11-05T15:09:16.428Z,13.80
2022-11-05T15:11:50.966Z,13.93
2022-11-05T15:14:25.674Z,13.35
2022-11-05T15:16:55.613Z,13.60
2022-11-05T15:19:30.016Z,13.08
2022-11-05T15:21:59.773Z,12.89
2022-11-05T15:24:28.995Z,13.43
2022-11-05T15:27:03.754Z,13.33
2022-11-05T15:29:33.718Z,13.59
2022-11-05T15:32:01.652Z,13.36
2022-11-05T15:34:32.349Z,13.61
2022-11-05T15:37:02.079Z,13.67
2022-11-05T15:39:39.300Z,13.41
2022-11-05T15:42:12.582Z,13.48
2022-11-05T15:44:42.469Z,13.32
2022-11-05T15:47:16.195Z,13.34
2022-11-05T15:49:47.778Z,13.44
2022-11-05T15:52:18.083Z,13.35
2022-11-05T15:54:45.813Z,13.33
2022-11-05T15:57:22.249Z,13.30
2022-11-05T15:59:50.133Z,13.32
2022-11-05T16:02:26.782Z,13.29
2022-11-05T16:04:56.172Z,13.22
2022-11-05T16:07:24.397Z,13.13
2022-11-05T16:09:54.263Z,13.19
2022-11-05T16:12:30.948Z,13.15
2022-11-05T16:15:00.554Z,13.17
2022-11-05T16:17:31.639Z,13.25
2022-11-05T16:20:00.802Z,13.17
2022-11-05T16:22:46.358Z,13.12
2022-11-05T16:25:26.893Z,13.27
2022-11-05T16:27:54.511Z,13.15
2022-11-05T16:30:22.783Z,13.23
2022-11-05T16:32:50.629Z,13.30
2022-11-05T16:35:22.630Z,13.29
2022-11-05T16:37:52.393Z,13.06
2022-11-05T16:40:22.735Z,13.13
2022-11-05T16:42:52.150Z,13.16
2022-11-05T16:45:21.451Z,13.12
2022-11-05T16:47:49.495Z,13.18
2022-11-05T16:50:21.830Z,13.18
2022-11-05T16:52:49.336Z,13.09
2022-11-05T16:55:17.923Z,12.93
2022-11-05T16:57:48.878Z,12.96
2022-11-05T17:00:18.911Z,12.57
2022-11-05T17:02:46.658Z,12.81
2022-11-05T17:05:20.814Z,12.91
2022-11-05T17:07:48.470Z,12.90
2022-11-05T17:10:16.346Z,13.01
2022-11-05T17:12:44.388Z,12.80
2022-11-05T17:15:18.502Z,12.24
2022-11-05T17:17:46.314Z,12.32
2022-11-05T17:20:25.255Z,12.73
2022-11-05T17:22:54.390Z,12.54
2022-11-05T17:25:21.825Z,12.69
2022-11-05T17:27:49.508Z,11.91
2022-11-05T17:30:17.340Z,12.36
2022-11-05T17:32:45.249Z,11.93
2022-11-05T17:35:12.962Z,12.10
2022-11-05T17:37:40.604Z,12.36
2022-11-05T17:40:14.810Z,12.56
2022-11-05T17:42:42.707Z,12.33
2022-11-05T17:45:11.581Z,12.33
2022-11-05T17:47:39.658Z,12.33
2022-11-05T17:50:09.245Z,12.07
2022-11-05T17:52:36.912Z,12.40
2022-11-05T17:55:05.396Z,12.48
2022-11-05T17:57:34.207Z,12.21
2022-11-05T18:00:01.713Z,12.19
2022-11-05T18:02:29.575Z,12.17
2022-11-05T18:04:57.164Z,12.37
2022-11-05T18:07:27.607Z,12.41
2022-11-05T18:09:55.050Z,12.22
2022-11-05T18:12:22.841Z,12.23
2022-11-05T18:14:51.728Z,12.23
2022-11-05T18:17:19.195Z,12.31
2022-11-05T18:19:46.647Z,12.21
2022-11-05T18:22:15.720Z,12.35
2022-11-05T18:24:43.156Z,12.30
2022-11-05T18:27:11.329Z,12.32
2022-11-05T18:29:39.034Z,12.25
2022-11-05T18:32:07.861Z,12.21
2022-11-05T18:34:35.931Z,12.13
2022-11-05T18:37:03.471Z,12.18
2022-11-05T18:39:30.954Z,12.12
2022-11-05T18:41:58.377Z,12.09
2022-11-05T18:44:25.978Z,12.17
2022-11-05T18:46:58.480Z,12.13
2022-11-05T18:49:28.108Z,12.14
2022-11-05T18:51:55.602Z,12.06
2022-11-05T18:54:23.008Z,12.13
2022-11-05T18:56:50.370Z,12.16
2022-11-05T18:59:36.675Z,12.17
2022-11-05T19:02:06.283Z,12.24
2022-11-05T19:04:35.864Z,12.19
2022-11-05T19:07:05.526Z,12.01
2022-11-05T19:09:33.693Z,12.05
2022-11-05T19:12:01.877Z,12.09
2022-11-05T19:14:30.085Z,12.03
2022-11-05T19:16:57.821Z,11.95
2022-11-05T19:19:25.640Z,11.66
2022-11-05T19:21:54.563Z,11.92
2022-11-05T19:24:22.068Z,11.95
2022-11-05T19:26:50.339Z,11.84
2022-11-05T19:29:17.827Z,11.95
2022-11-05T19:31:46.869Z,11.88
2022-11-05T19:34:14.750Z,11.74
2022-11-05T19:36:43.215Z,11.62
2022-11-05T19:39:15.979Z,11.67
2022-11-05T19:41:43.582Z,11.45
2022-11-05T19:44:11.130Z,11.43
2022-11-05T19:46:38.637Z,11.60
2022-11-05T19:49:06.061Z,11.13
2022-11-05T19:51:34.371Z,11.30
2022-11-05T19:54:03.379Z,11.50
2022-11-05T19:56:34.325Z,11.48
2022-11-05T19:59:03.236Z,11.52
2022-11-05T20:01:31.776Z,11.42
2022-11-05T20:03:59.926Z,11.42
2022-11-05T20:06:31.959Z,11.45
2022-11-05T20:11:50.996Z,11.22
2022-11-05T20:14:18.412Z,11.36
2022-11-05T20:16:46.369Z,11.42
2022-11-05T20:19:16.345Z,11.34
2022-11-05T20:21:44.413Z,11.16
2022-11-05T20:24:17.438Z,11.23
2022-11-05T20:26:51.153Z,11.11
2022-11-05T20:29:18.627Z,11.30
2022-11-05T20:31:46.110Z,11.13
2022-11-05T20:34:16.359Z,11.21
2022-11-05T20:36:43.763Z,11.11
2022-11-05T20:39:14.278Z,11.19
2022-11-05T20:41:41.834Z,11.08
2022-11-05T20:44:11.832Z,11.10
2022-11-05T20:46:39.233Z,11.18
2022-11-05T20:49:06.702Z,11.07
2022-11-05T20:51:34.231Z,10.94
2022-11-05T20:54:02.775Z,10.89
2022-11-05T20:56:32.839Z,10.88
2022-11-05T20:59:01.516Z,10.84
2022-11-05T21:01:33.167Z,10.81
2022-11-05T21:04:00.742Z,10.78
2022-11-05T21:06:28.264Z,10.86
2022-11-05T21:08:56.049Z,10.85
2022-11-05T21:11:23.888Z,10.77
2022-11-05T21:13:51.433Z,10.86
2022-11-05T21:16:20.372Z,10.93
2022-11-05T21:18:49.953Z,10.87
2022-11-05T21:21:20.318Z,10.91
2022-11-05T21:23:48.175Z,10.47
2022-11-05T21:26:16.754Z,9.87
2022-11-05T21:28:44.568Z,10.57
2022-11-05T21:31:12.200Z,10.67
2022-11-05T21:33:40.376Z,10.70
2022-11-05T21:36:11.755Z,10.87
2022-11-05T21:38:39.996Z,10.62
2022-11-05T21:41:08.123Z,10.87
2022-11-05T21:43:35.858Z,10.87
2022-11-05T21:46:04.819Z,10.75
2022-11-05T21:48:33.218Z,10.75
2022-11-05T21:51:18.293Z,10.86
2022-11-05T21:54:05.201Z,10.55
2022-11-05T21:56:51.123Z,10.51
2022-11-05T21:59:39.034Z,10.66
2022-11-05T22:02:07.757Z,10.82
2022-11-05T22:04:37.576Z,11.03
2022-11-05T22:07:06.079Z,10.98
2022-11-05T22:09:35.354Z,10.95
2022-11-05T22:12:05.403Z,10.93
2022-11-05T22:14:37.388Z,10.96
2022-11-05T22:17:05.923Z,10.38
2022-11-05T22:19:33.631Z,10.44
2022-11-05T22:22:01.224Z,10.92
2022-11-05T22:24:30.554Z,10.16
2022-11-05T22:26:59.695Z,10.66
2022-11-05T22:29:27.586Z,10.73
2022-11-05T22:31:55.630Z,9.40
2022-11-05T22:34:23.023Z,10.36
2022-11-05T22:36:50.752Z,10.46
2022-11-05T22:39:18.336Z,10.68
2022-11-05T22:41:46.085Z,10.94
2022-11-05T22:44:16.684Z,10.66
2022-11-05T22:46:44.354Z,10.53
2022-11-05T22:49:12.038Z,10.73
2022-11-05T22:51:40.929Z,10.57
2022-11-05T22:54:08.744Z,10.82
2022-11-05T22:56:38.632Z,10.80
2022-11-05T22:59:07.374Z,10.35
2022-11-05T23:01:36.774Z,9.77
2022-11-05T23:04:04.322Z,10.17
2022-11-05T23:06:50.822Z,10.49
2022-11-05T23:09:38.310Z,9.70
2022-11-05T23:12:08.975Z,10.23
2022-11-05T23:14:37.166Z,9.26
2022-11-05T23:17:23.966Z,11.46
2022-11-05T23:20:08.834Z,14.24
2022-11-05T23:22:53.856Z,14.49
2022-11-05T23:25:23.590Z,15.38
2022-11-05T23:27:52.975Z,15.59
2022-11-05T23:30:22.749Z,14.72
2022-11-05T23:32:51.237Z,14.89
2022-11-05T23:35:39.145Z,15.69
2022-11-05T23:38:24.553Z,15.40
2022-11-05T23:41:09.547Z,16.32
2022-11-05T23:43:54.417Z,16.37
2022-11-05T23:46:39.279Z,12.85
2022-11-05T23:49:08.095Z,11.78
2022-11-05T23:51:35.483Z,11.94
2022-11-05T23:54:02.902Z,11.37
2022-11-05T23:56:31.881Z,10.60
2022-11-05T23:58:59.495Z,9.92
